createdAt,value
2018-08-18T00:00:13.662Z,9.93
2018-08-18T00:02:42.166Z,11.33
2018-08-18T00:05:11.547Z,11.13
2018-08-18T00:07:40.047Z,10.53
2018-08-18T00:10:09.907Z,11.07
2018-08-18T00:12:38.635Z,10.30
2018-08-18T00:15:08.178Z,11.60
2018-08-18T00:17:37.614Z,12.20
2018-08-18T00:20:11.468Z,12.77
2018-08-18T00:22:39.890Z,11.33
2018-08-18T00:25:08.334Z,12.97
2018-08-18T00:27:36.723Z,13.77
2018-08-18T00:30:39.108Z,16.67
2018-08-18T00:33:07.522Z,14.33
2018-08-18T00:35:35.965Z,12.20
2018-08-18T00:38:04.339Z,10.93
2018-08-18T00:40:32.691Z,17.67
2018-08-18T00:43:01.151Z,10.63
2018-08-18T00:45:29.547Z,22.70
2018-08-18T00:47:57.983Z,16.70
2018-08-18T00:50:37.649Z,16.30
2018-08-18T00:53:07.753Z,19.07
2018-08-18T00:55:36.591Z,14.93
2018-08-18T00:58:05.788Z,12.27
2018-08-18T01:00:34.551Z,14.87
2018-08-18T01:03:03.030Z,12.90
2018-08-18T01:05:31.439Z,12.13
2018-08-18T01:07:59.945Z,16.13
2018-08-18T01:10:28.443Z,17.63
2018-08-18T01:12:56.890Z,21.40
2018-08-18T01:15:27.253Z,17.90
2018-08-18T01:17:56.458Z,18.10
2018-08-18T01:20:24.975Z,14.70
2018-08-18T01:23:00.922Z,16.80
2018-08-18T01:25:30.243Z,15.83
2018-08-18T01:27:59.583Z,15.10
2018-08-18T01:30:27.983Z,13.00
2018-08-18T01:32:56.834Z,14.83
2018-08-18T01:35:25.593Z,18.80
2018-08-18T01:37:53.950Z,16.67
2018-08-18T01:40:22.343Z,15.40
2018-08-18T01:42:50.711Z,16.40
2018-08-18T01:45:19.175Z,14.97
2018-08-18T01:47:47.571Z,21.03
2018-08-18T01:50:19.330Z,23.73
2018-08-18T01:52:47.708Z,21.00
2018-08-18T01:55:16.202Z,18.23
2018-08-18T01:57:44.874Z,21.40
2018-08-18T02:00:23.035Z,17.70
2018-08-18T02:02:51.420Z,20.27
2018-08-18T02:05:19.991Z,15.93
2018-08-18T02:07:48.363Z,18.17
2018-08-18T02:10:16.754Z,16.70
2018-08-18T02:12:56.463Z,16.83
2018-08-18T02:15:24.847Z,18.73
2018-08-18T02:17:53.238Z,19.67
2018-08-18T02:20:21.703Z,16.10
2018-08-18T02:22:50.074Z,17.53
2018-08-18T02:25:21.618Z,17.03
2018-08-18T02:27:49.984Z,15.57
2018-08-18T02:30:19.512Z,18.53
2018-08-18T02:32:47.930Z,16.47
2018-08-18T02:35:16.350Z,16.10
2018-08-18T02:37:44.715Z,17.43
2018-08-18T02:40:14.989Z,18.47
2018-08-18T02:42:43.383Z,20.40
2018-08-18T02:45:12.606Z,19.83
2018-08-18T02:47:41.059Z,17.30
2018-08-18T02:50:10.790Z,16.73
2018-08-18T02:52:39.190Z,17.27
2018-08-18T02:55:09.590Z,16.83
2018-08-18T02:57:44.614Z,14.93
2018-08-18T03:00:21.701Z,17.00
2018-08-18T03:02:50.176Z,20.63
2018-08-18T03:05:18.540Z,17.10
2018-08-18T03:07:50.985Z,19.03
2018-08-18T03:10:22.698Z,17.03
2018-08-18T03:12:51.686Z,15.53
2018-08-18T03:16:07.694Z,15.17
2018-08-18T03:18:46.059Z,15.17
2018-08-18T03:21:14.665Z,17.80
2018-08-18T03:23:54.523Z,19.10
2018-08-18T03:26:36.634Z,17.97
2018-08-18T03:29:05.076Z,18.60
2018-08-18T03:31:33.382Z,14.87
2018-08-18T03:34:01.775Z,17.37
2018-08-18T03:36:31.467Z,16.43
2018-08-18T03:39:00.118Z,17.10
2018-08-18T03:41:29.228Z,20.23
2018-08-18T03:43:58.055Z,26.00
2018-08-18T03:46:26.466Z,25.13
2018-08-18T03:48:55.159Z,28.43
2018-08-18T03:51:55.979Z,25.70
2018-08-18T03:54:24.378Z,23.13
2018-08-18T03:56:52.770Z,23.90
2018-08-18T03:59:21.190Z,24.40
2018-08-18T04:01:53.842Z,22.63
2018-08-18T04:04:23.296Z,21.60
2018-08-18T04:06:52.911Z,20.40
2018-08-18T04:09:30.098Z,22.53
2018-08-18T04:11:59.234Z,21.90
2018-08-18T04:14:30.690Z,22.83
2018-08-18T04:16:59.123Z,33.57
2018-08-18T04:19:27.591Z,23.47
2018-08-18T04:21:56.447Z,22.53
2018-08-18T04:24:33.755Z,21.80
2018-08-18T04:27:02.780Z,24.33
2018-08-18T04:29:31.183Z,21.03
2018-08-18T04:32:00.100Z,22.07
2018-08-18T04:34:28.495Z,21.40
2018-08-18T04:36:56.882Z,21.20
2018-08-18T04:39:25.273Z,31.17
2018-08-18T04:41:53.647Z,22.40
2018-08-18T04:44:22.090Z,21.53
2018-08-18T04:46:50.411Z,20.93
2018-08-18T04:49:18.795Z,18.67
2018-08-18T04:51:47.236Z,20.97
2018-08-18T04:54:15.635Z,20.00
2018-08-18T04:56:44.040Z,20.60
2018-08-18T04:59:12.487Z,19.23
2018-08-18T05:01:41.407Z,20.03
2018-08-18T05:04:10.914Z,21.57
2018-08-18T05:06:40.745Z,19.93
2018-08-18T05:09:10.295Z,21.27
2018-08-18T05:11:38.854Z,19.23
2018-08-18T05:14:07.406Z,20.83
2018-08-18T05:16:35.911Z,20.70
2018-08-18T05:19:04.332Z,20.67
2018-08-18T05:21:32.724Z,21.03
2018-08-18T05:24:32.351Z,21.67
2018-08-18T05:27:05.020Z,28.37
2018-08-18T05:29:33.988Z,26.67
2018-08-18T05:32:02.379Z,24.20
2018-08-18T05:34:30.771Z,26.77
2018-08-18T05:36:59.216Z,27.93
2018-08-18T05:39:27.582Z,25.80
2018-08-18T05:41:55.972Z,40.37
2018-08-18T05:44:24.331Z,24.47
2018-08-18T05:46:52.731Z,25.73
2018-08-18T05:49:21.136Z,23.97
2018-08-18T05:51:50.564Z,23.53
2018-08-18T05:54:24.255Z,24.37
2018-08-18T05:56:52.630Z,24.37
2018-08-18T05:59:21.003Z,24.23
2018-08-18T06:01:49.401Z,24.20
2018-08-18T06:04:19.008Z,23.67
2018-08-18T06:06:48.048Z,25.53
2018-08-18T06:09:17.659Z,25.83
2018-08-18T06:11:46.120Z,24.83
2018-08-18T06:14:14.979Z,25.10
2018-08-18T06:16:43.813Z,23.57
2018-08-18T06:19:12.212Z,22.50
2018-08-18T06:21:40.684Z,23.23
2018-08-18T06:24:09.078Z,21.23
2018-08-18T06:26:37.452Z,20.83
2018-08-18T06:29:05.995Z,19.80
2018-08-18T06:31:38.999Z,20.53
2018-08-18T06:34:07.374Z,19.30
2018-08-18T06:36:35.734Z,19.87
2018-08-18T06:39:05.279Z,19.87
2018-08-18T06:41:33.695Z,21.87
2018-08-18T06:44:02.007Z,19.73
2018-08-18T06:46:30.461Z,18.57
2018-08-18T06:48:58.828Z,19.03
2018-08-18T06:51:27.231Z,18.63
2018-08-18T06:53:55.595Z,18.00
2018-08-18T06:56:24.007Z,17.10
2018-08-18T06:58:52.432Z,18.93
2018-08-18T07:01:20.806Z,17.07
2018-08-18T07:03:49.200Z,17.20
2018-08-18T07:06:18.060Z,16.17
2018-08-18T07:08:52.557Z,17.63
2018-08-18T07:11:20.936Z,14.90
2018-08-18T07:13:49.805Z,13.23
2018-08-18T07:16:18.199Z,14.83
2018-08-18T07:18:46.554Z,16.70
2018-08-18T07:21:14.910Z,15.07
2018-08-18T07:23:46.251Z,15.37
2018-08-18T07:26:14.616Z,15.20
2018-08-18T07:28:43.066Z,16.63
2018-08-18T07:31:12.388Z,14.67
2018-08-18T07:33:40.818Z,14.73
2018-08-18T07:36:09.188Z,13.47
2018-08-18T07:38:37.572Z,17.00
2018-08-18T07:41:05.971Z,14.73
2018-08-18T07:43:35.670Z,12.90
2018-08-18T07:46:05.715Z,10.93
2018-08-18T07:48:34.140Z,16.63
2018-08-18T07:51:02.647Z,11.57
2018-08-18T07:53:31.133Z,10.87
2018-08-18T07:55:59.463Z,12.93
2018-08-18T07:58:27.867Z,12.07
2018-08-18T08:00:56.906Z,14.73
2018-08-18T08:03:25.353Z,12.03
2018-08-18T08:05:53.728Z,9.77
2018-08-18T08:08:22.174Z,13.17
2018-08-18T08:10:50.640Z,10.10
2018-08-18T08:13:19.023Z,5.93
2018-08-18T08:15:47.391Z,7.10
2018-08-18T08:18:16.233Z,8.93
2018-08-18T08:20:44.535Z,9.23
2018-08-18T08:23:13.015Z,9.67
2018-08-18T08:25:41.398Z,6.93
2018-08-18T08:28:09.768Z,6.60
2018-08-18T08:30:38.166Z,6.30
2018-08-18T08:33:06.634Z,5.80
2018-08-18T08:35:37.423Z,8.37
2018-08-18T08:38:05.878Z,6.90
2018-08-18T08:40:34.419Z,8.67
2018-08-18T08:43:03.072Z,7.80
2018-08-18T08:45:31.602Z,8.47
2018-08-18T08:48:00.047Z,8.80
2018-08-18T08:50:28.419Z,7.13
2018-08-18T08:52:57.620Z,7.57
2018-08-18T08:55:27.315Z,11.30
2018-08-18T08:57:55.719Z,8.00
2018-08-18T09:00:24.123Z,7.80
2018-08-18T09:02:52.468Z,6.33
2018-08-18T09:05:21.143Z,6.77
2018-08-18T09:07:49.537Z,8.17
2018-08-18T09:10:18.322Z,6.70
2018-08-18T09:12:46.651Z,7.13
2018-08-18T09:15:16.294Z,11.07
2018-08-18T09:17:44.679Z,7.90
2018-08-18T09:20:17.606Z,6.60
2018-08-18T09:22:54.539Z,7.77
2018-08-18T09:25:22.910Z,7.33
2018-08-18T09:28:02.123Z,9.00
2018-08-18T09:30:31.856Z,6.00
2018-08-18T09:33:02.777Z,8.27
2018-08-18T09:35:40.643Z,6.40
2018-08-18T09:38:09.006Z,7.63
2018-08-18T09:40:37.359Z,14.77
2018-08-18T09:43:09.936Z,6.77
2018-08-18T09:45:38.315Z,6.53
2018-08-18T09:48:06.964Z,6.87
2018-08-18T09:50:35.327Z,6.90
2018-08-18T09:53:03.723Z,8.67
2018-08-18T09:55:32.086Z,6.17
2018-08-18T09:58:00.458Z,7.53
2018-08-18T10:00:45.376Z,7.27
2018-08-18T10:03:13.718Z,9.00
2018-08-18T10:05:42.114Z,7.63
2018-08-18T10:08:10.517Z,8.73
2018-08-18T10:10:38.905Z,8.20
2018-08-18T10:13:07.271Z,6.70
2018-08-18T10:15:35.945Z,7.13
2018-08-18T10:18:04.327Z,9.30
2018-08-18T10:20:37.807Z,6.73
2018-08-18T10:23:06.191Z,9.43
2018-08-18T10:25:34.552Z,9.77
2018-08-18T10:28:02.891Z,9.77
2018-08-18T10:30:31.243Z,7.17
2018-08-18T10:33:06.087Z,6.60
2018-08-18T10:35:34.459Z,10.87
2018-08-18T10:38:05.151Z,9.73
2018-08-18T10:40:33.547Z,7.00
2018-08-18T10:43:01.902Z,7.27
2018-08-18T10:45:30.274Z,6.80
2018-08-18T10:47:58.599Z,6.67
2018-08-18T10:57:52.428Z,8.00
2018-08-18T11:00:22.827Z,7.87
2018-08-18T11:02:54.287Z,8.93
2018-08-18T11:05:23.531Z,7.53
2018-08-18T11:07:58.210Z,6.47
2018-08-18T11:10:28.431Z,5.60
2018-08-18T11:12:56.854Z,7.53
2018-08-18T11:15:25.360Z,4.93
2018-08-18T11:17:54.051Z,5.70
2018-08-18T11:20:23.632Z,13.47
2018-08-18T11:23:14.543Z,6.40
2018-08-18T11:25:45.150Z,6.13
2018-08-18T11:28:14.210Z,11.13
2018-08-18T11:30:42.682Z,7.37
2018-08-18T11:33:11.768Z,7.17
2018-08-18T11:35:40.114Z,5.17
2018-08-18T11:38:15.494Z,5.83
2018-08-18T11:40:44.087Z,10.03
2018-08-18T11:43:14.054Z,8.67
2018-08-18T11:45:43.355Z,6.13
2018-08-18T11:48:13.832Z,8.60
2018-08-18T11:50:42.628Z,7.23
2018-08-18T11:53:11.068Z,4.43
2018-08-18T11:55:39.634Z,6.60
2018-08-18T11:58:13.383Z,5.33
2018-08-18T12:00:46.236Z,5.20
2018-08-18T12:03:15.910Z,5.47
2018-08-18T12:05:47.301Z,9.50
2018-08-18T12:08:17.285Z,4.87
2018-08-18T12:10:46.145Z,5.23
2018-08-18T12:13:14.531Z,5.50
2018-08-18T12:16:15.519Z,5.67
2018-08-18T12:18:45.071Z,5.80
2018-08-18T12:21:13.867Z,8.63
2018-08-18T12:23:43.674Z,10.73
2018-08-18T12:26:16.376Z,6.53
2018-08-18T12:28:52.779Z,7.27
2018-08-18T12:31:23.493Z,4.60
2018-08-18T12:33:52.381Z,10.13
2018-08-18T12:36:20.946Z,5.43
2018-08-18T12:38:51.259Z,4.13
2018-08-18T12:41:19.632Z,5.53
2018-08-18T12:43:50.931Z,4.30
2018-08-18T12:46:20.547Z,5.63
2018-08-18T12:48:50.410Z,8.17
2018-08-18T12:51:19.615Z,5.20
2018-08-18T12:53:49.299Z,4.67
2018-08-18T12:56:19.690Z,3.07
2018-08-18T12:58:48.095Z,5.47
2018-08-18T13:01:36.259Z,4.30
2018-08-18T13:04:06.607Z,5.70
2018-08-18T13:06:39.175Z,5.40
2018-08-18T13:09:09.491Z,5.40
2018-08-18T13:11:37.951Z,5.00
2018-08-18T13:14:06.615Z,6.83
2018-08-18T13:16:36.127Z,5.33
2018-08-18T13:19:04.851Z,5.37
2018-08-18T13:21:33.188Z,6.37
2018-08-18T13:24:02.539Z,6.57
2018-08-18T13:26:31.256Z,6.00
2018-08-18T13:28:59.562Z,8.40
2018-08-18T13:31:32.540Z,7.17
2018-08-18T13:34:00.936Z,6.90
2018-08-18T13:36:29.692Z,8.90
2018-08-18T13:38:58.048Z,8.37
2018-08-18T13:41:26.402Z,6.10
2018-08-18T13:43:54.750Z,6.20
2018-08-18T13:46:34.560Z,6.07
2018-08-18T13:49:03.251Z,6.90
2018-08-18T13:51:32.431Z,6.80
2018-08-18T13:54:02.743Z,7.30
2018-08-18T13:56:31.608Z,5.83
2018-08-18T13:59:00.036Z,7.53
2018-08-18T14:01:40.092Z,5.40
2018-08-18T14:04:19.684Z,9.43
2018-08-18T14:06:54.349Z,8.90
2018-08-18T14:09:22.743Z,8.43
2018-08-18T14:11:54.723Z,6.73
2018-08-18T14:14:23.083Z,12.20
2018-08-18T14:16:51.477Z,6.97
2018-08-18T14:19:21.302Z,6.50
2018-08-18T14:21:53.878Z,7.90
2018-08-18T14:24:26.623Z,6.47
2018-08-18T14:27:01.308Z,6.73
2018-08-18T14:29:31.284Z,7.67
2018-08-18T14:32:00.259Z,9.17
2018-08-18T14:34:28.647Z,8.40
2018-08-18T14:37:01.160Z,6.93
2018-08-18T14:39:37.114Z,8.47
2018-08-18T14:42:05.819Z,7.57
2018-08-18T14:44:34.263Z,11.20
2018-08-18T14:47:02.739Z,6.20
2018-08-18T14:49:31.397Z,6.10
2018-08-18T14:51:59.795Z,12.93
2018-08-18T14:54:31.185Z,6.07
2018-08-18T14:57:01.031Z,10.27
2018-08-18T14:59:37.513Z,6.73
2018-08-18T15:02:07.379Z,11.63
2018-08-18T15:04:36.266Z,5.73
2018-08-18T15:07:04.699Z,8.60
2018-08-18T15:09:42.503Z,5.00
2018-08-18T15:12:10.880Z,5.87
2018-08-18T15:14:39.236Z,5.87
2018-08-18T15:17:07.635Z,7.40
2018-08-18T15:19:35.975Z,8.57
2018-08-18T15:22:06.911Z,7.60
2018-08-18T15:24:35.255Z,8.27
2018-08-18T15:27:03.650Z,5.53
2018-08-18T15:29:32.040Z,8.13
2018-08-18T15:32:00.449Z,11.67
2018-08-18T15:34:28.894Z,6.10
2018-08-18T15:36:57.254Z,6.27
2018-08-18T15:39:26.944Z,5.07
2018-08-18T15:41:57.408Z,6.63
2018-08-18T15:44:25.772Z,6.27
2018-08-18T15:46:54.168Z,6.17
2018-08-18T15:49:22.554Z,7.43
2018-08-18T15:51:50.962Z,5.67
2018-08-18T15:54:19.473Z,4.13
2018-08-18T15:56:47.822Z,6.47
2018-08-18T15:59:16.179Z,3.77
2018-08-18T16:01:44.543Z,5.43
2018-08-18T16:04:13.920Z,7.37
2018-08-18T16:06:42.294Z,4.93
2018-08-18T16:09:10.651Z,6.53
2018-08-18T16:11:39.051Z,4.93
2018-08-18T16:14:07.408Z,6.60
2018-08-18T16:16:51.579Z,5.93
2018-08-18T16:19:19.935Z,7.73
2018-08-18T16:21:48.327Z,5.10
2018-08-18T16:24:56.515Z,8.27
2018-08-18T16:27:24.937Z,8.43
2018-08-18T16:29:53.267Z,5.87
2018-08-18T16:32:26.372Z,8.07
2018-08-18T16:35:02.753Z,7.03
2018-08-18T16:37:31.987Z,13.43
2018-08-18T16:40:00.367Z,6.57
2018-08-18T16:42:29.179Z,7.50
2018-08-18T16:44:57.596Z,5.30
2018-08-18T16:47:25.959Z,8.50
2018-08-18T16:49:54.328Z,9.03
2018-08-18T16:52:22.685Z,8.17
2018-08-18T16:54:51.060Z,9.77
2018-08-18T16:57:19.441Z,9.27
2018-08-18T16:59:47.831Z,5.97
2018-08-18T17:02:31.148Z,5.87
2018-08-18T17:04:59.511Z,6.17
2018-08-18T17:07:28.175Z,7.50
2018-08-18T17:09:56.595Z,7.60
2018-08-18T17:12:28.951Z,6.80
2018-08-18T17:14:57.336Z,8.33
2018-08-18T17:17:26.075Z,4.57
2018-08-18T17:19:54.455Z,8.00
2018-08-18T17:22:22.827Z,5.30
2018-08-18T17:24:51.234Z,5.37
2018-08-18T17:27:19.589Z,5.60
2018-08-18T17:29:49.766Z,3.70
2018-08-18T17:32:18.123Z,5.30
2018-08-18T17:34:46.487Z,5.80
2018-08-18T17:37:14.835Z,3.87
2018-08-18T17:39:43.230Z,5.27
2018-08-18T17:42:11.603Z,4.50
2018-08-18T17:44:39.963Z,4.63
2018-08-18T17:47:09.595Z,3.53
2018-08-18T17:49:57.734Z,5.40
2018-08-18T17:52:27.310Z,8.30
2018-08-18T17:55:10.783Z,4.10
2018-08-18T17:57:39.575Z,5.87
2018-08-18T18:00:29.598Z,6.03
2018-08-18T18:03:00.569Z,6.37
2018-08-18T18:05:31.826Z,3.67
2018-08-18T18:08:02.174Z,4.00
2018-08-18T18:10:31.868Z,3.50
2018-08-18T18:13:00.427Z,4.30
2018-08-18T18:15:32.671Z,5.33
2018-08-18T18:18:01.102Z,4.57
2018-08-18T18:20:31.047Z,4.27
2018-08-18T18:22:59.459Z,3.63
2018-08-18T18:25:27.895Z,6.10
2018-08-18T18:27:56.338Z,3.03
2018-08-18T18:30:27.574Z,2.80
2018-08-18T18:32:56.463Z,4.00
2018-08-18T18:35:25.295Z,2.80
2018-08-18T18:37:56.362Z,5.20
2018-08-18T18:40:24.744Z,5.70
2018-08-18T18:42:53.099Z,5.33
2018-08-18T18:45:23.488Z,10.07
2018-08-18T18:47:51.871Z,4.77
2018-08-18T18:50:20.436Z,3.07
2018-08-18T18:52:48.871Z,7.03
2018-08-18T18:55:17.807Z,7.63
2018-08-18T18:58:01.715Z,3.00
2018-08-18T19:00:31.575Z,3.80
2018-08-18T19:02:59.960Z,4.00
2018-08-18T19:05:29.707Z,7.73
2018-08-18T19:08:11.207Z,3.80
2018-08-18T19:10:39.835Z,3.07
2018-08-18T19:13:09.051Z,6.00
2018-08-18T19:15:37.410Z,3.63
2018-08-18T19:18:06.468Z,3.20
2018-08-18T19:20:34.875Z,4.47
2018-08-18T19:23:09.779Z,6.43
2018-08-18T19:25:39.431Z,5.23
2018-08-18T19:28:11.222Z,5.50
2018-08-18T19:30:39.624Z,5.47
2018-08-18T19:33:08.303Z,5.43
2018-08-18T19:35:40.418Z,4.20
2018-08-18T19:38:08.964Z,4.10
2018-08-18T19:40:38.626Z,3.50
2018-08-18T19:43:13.066Z,4.50
2018-08-18T19:45:41.544Z,4.70
2018-08-18T19:48:10.919Z,3.70
2018-08-18T19:50:48.471Z,3.70
2018-08-18T19:53:17.365Z,4.37
2018-08-18T19:55:45.742Z,6.90
2018-08-18T19:58:14.186Z,4.07
2018-08-18T20:00:42.541Z,4.00
2018-08-18T20:03:12.287Z,3.27
2018-08-18T20:05:40.639Z,7.77
2018-08-18T20:08:09.204Z,4.70
2018-08-18T20:10:44.041Z,6.80
2018-08-18T20:13:13.371Z,3.93
2018-08-18T20:15:44.283Z,4.97
2018-08-18T20:18:12.717Z,4.23
2018-08-18T20:20:41.103Z,6.77
2018-08-18T20:23:09.559Z,4.80
2018-08-18T20:25:37.931Z,5.43
2018-08-18T20:28:06.380Z,6.17
2018-08-18T20:30:34.763Z,3.50
2018-08-18T20:33:03.324Z,5.10
2018-08-18T20:35:31.687Z,4.50
2018-08-18T20:38:00.172Z,5.23
2018-08-18T20:40:28.676Z,5.10
2018-08-18T20:42:57.515Z,6.53
2018-08-18T20:45:31.600Z,4.20
2018-08-18T20:48:00.247Z,8.20
2018-08-18T20:50:29.176Z,7.97
2018-08-18T20:53:02.996Z,5.47
2018-08-18T20:55:31.575Z,3.10
2018-08-18T20:57:59.939Z,4.30
2018-08-18T21:00:28.297Z,5.43
2018-08-18T21:02:56.703Z,5.60
2018-08-18T21:05:25.045Z,5.73
2018-08-18T21:07:53.411Z,5.07
2018-08-18T21:10:21.746Z,5.93
2018-08-18T21:12:50.193Z,4.80
2018-08-18T21:15:18.579Z,5.63
2018-08-18T21:17:46.966Z,5.60
2018-08-18T21:20:17.129Z,6.63
2018-08-18T21:22:45.487Z,4.50
2018-08-18T21:25:14.607Z,7.03
2018-08-18T21:27:43.131Z,5.97
2018-08-18T21:30:14.292Z,6.17
2018-08-18T21:32:42.689Z,6.77
2018-08-18T21:35:11.055Z,7.33
2018-08-18T21:37:39.415Z,4.17
2018-08-18T21:40:08.800Z,7.70
2018-08-18T21:42:37.174Z,7.40
2018-08-18T21:45:08.855Z,6.90
2018-08-18T21:47:37.226Z,5.23
2018-08-18T21:50:05.999Z,5.93
2018-08-18T21:52:34.346Z,5.87
2018-08-18T21:55:02.712Z,6.03
2018-08-18T21:57:36.583Z,10.67
2018-08-18T22:00:05.473Z,6.73
2018-08-18T22:02:40.879Z,7.80
2018-08-18T22:05:11.871Z,6.10
2018-08-18T22:07:45.633Z,4.83
2018-08-18T22:10:14.003Z,6.67
2018-08-18T22:12:42.377Z,6.20
2018-08-18T22:15:17.685Z,10.03
2018-08-18T22:17:46.952Z,7.27
2018-08-18T22:20:16.101Z,6.60
2018-08-18T22:22:44.488Z,5.60
2018-08-18T22:25:13.111Z,6.70
2018-08-18T22:27:41.478Z,8.73
2018-08-18T22:30:12.064Z,11.20
2018-08-18T22:32:41.795Z,6.00
2018-08-18T22:35:11.239Z,6.33
2018-08-18T22:37:39.995Z,5.83
2018-08-18T22:40:09.366Z,6.03
2018-08-18T22:42:37.859Z,7.60
2018-08-18T22:45:17.683Z,7.70
2018-08-18T22:47:46.301Z,8.60
2018-08-18T22:50:15.484Z,7.23
2018-08-18T22:52:47.314Z,7.00
2018-08-18T22:55:15.875Z,6.83
2018-08-18T22:57:50.980Z,10.27
2018-08-18T23:00:19.375Z,8.03
2018-08-18T23:02:47.780Z,7.27
2018-08-18T23:05:17.755Z,6.17
2018-08-18T23:07:47.475Z,8.00
2018-08-18T23:10:15.886Z,6.73
2018-08-18T23:12:44.258Z,5.70
2018-08-18T23:15:12.615Z,6.93
2018-08-18T23:17:40.978Z,8.10
2018-08-18T23:20:09.379Z,7.83
2018-08-18T23:22:54.438Z,5.33
2018-08-18T23:25:23.979Z,7.67
2018-08-18T23:27:52.675Z,8.30
2018-08-18T23:30:37.023Z,8.70
2018-08-18T23:33:07.065Z,7.70
2018-08-18T23:35:35.634Z,8.50
2018-08-18T23:38:04.246Z,11.17
2018-08-18T23:40:32.663Z,8.73
2018-08-18T23:43:01.033Z,12.97
2018-08-18T23:45:37.621Z,8.80
2018-08-18T23:48:08.492Z,5.97
2018-08-18T23:50:37.835Z,6.60
2018-08-18T23:53:10.504Z,6.20
2018-08-18T23:55:48.542Z,5.47
2018-08-18T23:58:17.083Z,9.73
